Time;durP1;ratioP1;P1;durP2;ratioP2;P2;SDS_P1;SDS_P2;PMS_P1;PMS_P2;Temp;Humidity;BMP_temperature;BMP_pressure;BME280_temperature;BME280_humidity;BME280_pressure;Samples;Min_cycle;Max_cycle;Signal;HPM_P1;HPM_P2
2022/06/06 04:40:49;;;;;;;6.40;3.83;;;;;;;;;;5068097;28;20453;-58
2022/06/06 04:43:25;;;;;;;7.47;3.45;;;;;;;;;;5067905;28;20094;-58
2022/06/06 04:45:54;;;;;;;4.50;3.30;;;;;;;;;;5067872;28;20031;-60
2022/06/06 04:48:21;;;;;;;6.47;3.20;;;;;;;;;;5066465;28;20388;-58
2022/06/06 04:50:47;;;;;;;5.93;3.83;;;;;;;;;;5068131;28;20024;-58
2022/06/06 04:53:18;;;;;;;5.35;3.15;;;;;;;;;;5067892;28;20091;-59
2022/06/06 04:55:46;;;;;;;5.13;3.23;;;;;;;;;;5068157;28;20036;-59
2022/06/06 04:58:12;;;;;;;4.47;2.90;;;;;;;;;;5067629;28;20060;-59
2022/06/06 05:00:40;;;;;;;4.32;3.22;;;;;;;;;;5067735;28;20119;-59
2022/06/06 05:03:06;;;;;;;3.40;2.80;;;;;;;;;;5068047;28;20052;-59
2022/06/06 05:05:41;;;;;;;7.68;3.40;;;;;;;;;;5067824;28;20090;-59
2022/06/06 05:08:22;;;;;;;6.47;3.20;;;;;;;;;;5066988;28;20051;-59
2022/06/06 05:10:48;;;;;;;4.47;3.22;;;;;;;;;;5067798;28;20044;-64
2022/06/06 05:13:23;;;;;;;8.25;3.80;;;;;;;;;;5067450;28;20025;-59
2022/06/06 05:15:55;;;;;;;3.90;3.20;;;;;;;;;;5067292;28;20425;-60
2022/06/06 05:18:24;;;;;;;5.88;3.25;;;;;;;;;;5067031;28;20480;-59
2022/06/06 05:21:16;;;;;;;7.03;3.42;;;;;;;;;;5067125;28;20041;-58
2022/06/06 05:23:52;;;;;;;4.07;3.25;;;;;;;;;;5067208;28;20467;-58
2022/06/06 05:26:47;;;;;;;7.72;3.83;;;;;;;;;;5066837;28;20068;-59
2022/06/06 05:29:32;;;;;;;5.15;3.33;;;;;;;;;;5044332;28;20037;-59
2022/06/06 05:32:28;;;;;;;9.32;3.80;;;;;;;;;;5044242;28;20232;-58
2022/06/06 05:35:20;;;;;;;4.88;3.33;;;;;;;;;;5004473;28;20034;-58
2022/06/06 05:37:58;;;;;;;9.27;4.47;;;;;;;;;;5002664;28;20034;-59
2022/06/06 05:40:38;;;;;;;6.82;3.67;;;;;;;;;;4984604;28;20050;-64
2022/06/06 05:43:19;;;;;;;7.68;3.00;;;;;;;;;;4985205;28;20058;-65
2022/06/06 05:45:45;;;;;;;5.20;3.03;;;;;;;;;;4985309;28;20043;-64
2022/06/06 05:48:29;;;;;;;6.22;2.53;;;;;;;;;;4985042;28;20058;-59
2022/06/06 05:51:13;;;;;;;4.85;2.47;;;;;;;;;;4978038;28;20034;-59
2022/06/06 05:53:45;;;;;;;5.53;2.75;;;;;;;;;;4972122;28;20240;-59
2022/06/06 05:56:30;;;;;;;3.65;3.00;;;;;;;;;;4972279;28;20393;-64
2022/06/06 05:59:02;;;;;;;6.10;2.90;;;;;;;;;;4970969;28;20046;-61
2022/06/06 06:01:54;;;;;;;4.20;3.80;;;;;;;;;;4971892;28;20066;-60
2022/06/06 06:04:23;;;;;;;6.22;3.90;;;;;;;;;;4968238;28;20039;-59
2022/06/06 06:06:49;;;;;;;5.93;3.80;;;;;;;;;;4971639;28;20039;-59
2022/06/06 06:09:34;;;;;;;6.78;4.18;;;;;;;;;;4979666;28;20494;-62
2022/06/06 06:12:19;;;;;;;7.05;6.22;;;;;;;;;;5024015;28;20366;-59
2022/06/06 06:14:48;;;;;;;4.93;4.30;;;;;;;;;;5032846;28;20017;-60
2022/06/06 06:17:17;;;;;;;6.15;4.00;;;;;;;;;;5032543;28;20021;-63
2022/06/06 06:19:46;;;;;;;4.32;3.88;;;;;;;;;;5032730;28;20539;-65
2022/06/06 06:22:13;;;;;;;6.25;4.32;;;;;;;;;;5032605;28;20108;-66
2022/06/06 06:24:40;;;;;;;9.82;4.13;;;;;;;;;;5032663;28;20036;-64
2022/06/06 06:27:07;;;;;;;6.47;3.25;;;;;;;;;;5032585;28;20030;-60
2022/06/06 06:29:33;;;;;;;6.78;3.70;;;;;;;;;;5031128;28;20037;-61
2022/06/06 06:31:59;;;;;;;6.22;3.72;;;;;;;;;;5031426;28;20026;-61
2022/06/06 06:34:35;;;;;;;7.00;4.20;;;;;;;;;;5030879;28;20040;-60
2022/06/06 06:37:10;;;;;;;8.25;4.68;;;;;;;;;;5031447;28;20040;-60
2022/06/06 06:39:45;;;;;;;11.65;5.35;;;;;;;;;;5028988;28;20059;-63
2022/06/06 06:42:14;;;;;;;6.68;5.03;;;;;;;;;;5029242;28;20022;-59
2022/06/06 06:44:46;;;;;;;8.10;4.93;;;;;;;;;;5030481;28;20033;-61
2022/06/06 06:47:16;;;;;;;7.38;4.88;;;;;;;;;;5030674;28;20021;-59
2022/06/06 06:49:44;;;;;;;6.20;4.20;;;;;;;;;;5031579;28;20037;-60
2022/06/06 06:52:13;;;;;;;6.53;4.50;;;;;;;;;;5032813;28;20358;-59
2022/06/06 06:54:59;;;;;;;7.65;4.20;;;;;;;;;;5031987;28;20576;-59
2022/06/06 06:57:34;;;;;;;6.72;4.38;;;;;;;;;;5030074;28;20033;-58
2022/06/06 07:00:00;;;;;;;15.63;4.30;;;;;;;;;;5030820;28;20029;-62
2022/06/06 07:08:33;;;;;;;9.30;5.07;;;;;;;;;;5012213;28;20076;-62
2022/06/06 07:11:08;;;;;;;7.85;5.40;;;;;;;;;;5012360;28;20033;-60
2022/06/06 07:13:49;;;;;;;6.95;5.30;;;;;;;;;;5012159;28;20255;-61
2022/06/06 07:16:27;;;;;;;6.93;4.50;;;;;;;;;;5010749;28;20029;-63
2022/06/06 07:19:00;;;;;;;7.85;4.53;;;;;;;;;;5011697;28;20030;-59
2022/06/06 07:21:28;;;;;;;8.70;4.65;;;;;;;;;;5012126;28;20038;-59
2022/06/06 07:23:55;;;;;;;5.47;4.40;;;;;;;;;;5011831;28;20036;-59
2022/06/06 07:26:22;;;;;;;9.20;5.10;;;;;;;;;;5011637;28;20026;-61
2022/06/06 07:28:48;;;;;;;7.63;4.75;;;;;;;;;;5011345;28;20121;-64
2022/06/06 07:31:20;;;;;;;7.53;4.97;;;;;;;;;;5011897;28;20049;-62
2022/06/06 07:33:52;;;;;;;5.65;4.20;;;;;;;;;;5011934;28;20393;-60
2022/06/06 07:36:37;;;;;;;8.57;4.53;;;;;;;;;;5011266;28;20030;-59
2022/06/06 07:39:17;;;;;;;6.20;4.13;;;;;;;;;;5011242;28;20046;-59
2022/06/06 07:41:43;;;;;;;5.70;4.80;;;;;;;;;;5011418;28;20026;-58
2022/06/06 07:44:15;;;;;;;5.78;4.13;;;;;;;;;;5011857;28;20080;-59
2022/06/06 07:46:42;;;;;;;7.20;4.45;;;;;;;;;;5011051;28;20104;-61
2022/06/06 07:49:17;;;;;;;5.82;4.70;;;;;;;;;;5011344;28;20036;-59
2022/06/06 07:51:48;;;;;;;10.90;5.32;;;;;;;;;;5011739;28;20025;-62
2022/06/06 07:54:18;;;;;;;6.82;4.65;;;;;;;;;;5011727;28;20049;-60
2022/06/06 07:56:56;;;;;;;8.57;4.55;;;;;;;;;;5011509;28;20116;-61
2022/06/06 07:59:25;;;;;;;9.40;5.00;;;;;;;;;;5009542;28;20397;-60
2022/06/06 08:02:03;;;;;;;15.02;4.47;;;;;;;;;;5009884;28;20412;-58
2022/06/06 08:04:35;;;;;;;6.38;4.80;;;;;;;;;;5009945;28;20409;-58
2022/06/06 08:07:01;;;;;;;10.00;5.10;;;;;;;;;;5011239;28;20029;-58
2022/06/06 08:09:45;;;;;;;6.35;4.60;;;;;;;;;;5011331;28;20359;-61
2022/06/06 08:12:27;;;;;;;8.65;5.10;;;;;;;;;;5010697;28;20472;-61
2022/06/06 08:14:59;;;;;;;8.98;4.60;;;;;;;;;;5010828;28;20076;-61
2022/06/06 08:17:25;;;;;;;;;;;;;;;;;;5011518;28;20108;-61
2022/06/06 08:20:00;;;;;;;6.95;4.50;;;;;;;;;;5018529;28;20016;-61
2022/06/06 08:22:26;;;;;;;9.48;4.40;;;;;;;;;;5027365;28;20110;-61
2022/06/06 08:24:54;;;;;;;6.22;4.40;;;;;;;;;;5029631;28;20026;-60
2022/06/06 08:27:20;;;;;;;7.43;4.72;;;;;;;;;;5029850;28;20102;-61
2022/06/06 08:29:47;;;;;;;7.72;4.38;;;;;;;;;;5027820;28;20041;-61
2022/06/06 08:32:14;;;;;;;7.82;5.00;;;;;;;;;;5030044;28;20067;-62
2022/06/06 08:34:40;;;;;;;8.13;4.55;;;;;;;;;;5029323;28;20021;-60
2022/06/06 08:37:14;;;;;;;8.50;5.20;;;;;;;;;;5029394;28;20528;-62
2022/06/06 08:39:46;;;;;;;7.03;4.85;;;;;;;;;;5029461;28;20084;-61
2022/06/06 08:42:12;;;;;;;;;;;;;;;;;;5026435;28;20557;-59
2022/06/06 08:44:51;;;;;;;8.70;5.00;;;;;;;;;;5028161;28;19909;-61
2022/06/06 08:47:35;;;;;;;11.30;5.85;;;;;;;;;;5027477;28;20358;-65
2022/06/06 08:53:02;;;;;;;10.90;5.18;;;;;;;;;;5018768;28;20075;-61
2022/06/06 08:55:47;;;;;;;8.13;4.85;;;;;;;;;;5029113;28;20026;-61
2022/06/06 08:58:16;;;;;;;7.65;5.10;;;;;;;;;;5027031;28;20408;-62
2022/06/06 09:01:00;;;;;;;5.57;4.45;;;;;;;;;;5029499;28;20044;-61
2022/06/06 09:03:46;;;;;;;7.07;4.70;;;;;;;;;;5029192;28;20532;-62
2022/06/06 09:06:18;;;;;;;7.40;4.85;;;;;;;;;;5023545;28;20033;-60
2022/06/06 09:08:44;;;;;;;;;;;;;;;;;;5029343;28;20071;-62
2022/06/06 09:11:16;;;;;;;5.32;4.55;;;;;;;;;;5029160;28;19913;-60
2022/06/06 09:13:45;;;;;;;7.55;4.80;;;;;;;;;;5029672;28;20040;-60
2022/06/06 09:16:29;;;;;;;9.02;5.10;;;;;;;;;;5030463;28;20102;-60
2022/06/06 09:19:15;;;;;;;9.43;4.93;;;;;;;;;;5030189;28;20029;-60
2022/06/06 09:22:00;;;;;;;6.50;5.00;;;;;;;;;;5029543;28;20035;-62
2022/06/06 09:24:32;;;;;;;6.45;4.90;;;;;;;;;;5030015;28;20091;-60
2022/06/06 09:26:58;;;;;;;9.07;5.10;;;;;;;;;;5031341;28;20049;-65
2022/06/06 09:29:24;;;;;;;7.22;4.90;;;;;;;;;;5032372;28;20401;-61
2022/06/06 09:32:13;;;;;;;7.13;4.68;;;;;;;;;;5033734;28;20488;-61
2022/06/06 09:34:58;;;;;;;8.40;5.10;;;;;;;;;;5034003;28;20026;-62
2022/06/06 09:37:45;;;;;;;9.63;5.55;;;;;;;;;;5033725;28;20029;-62
2022/06/06 09:40:19;;;;;;;5.63;5.00;;;;;;;;;;5033030;28;20068;-61
2022/06/06 09:43:01;;;;;;;8.10;5.53;;;;;;;;;;5032999;28;20104;-62
2022/06/06 09:45:31;;;;;;;6.07;4.47;;;;;;;;;;5033501;28;20022;-61
2022/06/06 09:48:03;;;;;;;11.90;5.32;;;;;;;;;;5033319;28;20029;-61
2022/06/06 09:50:47;;;;;;;7.65;5.53;;;;;;;;;;5033438;28;20416;-65
2022/06/06 09:53:36;;;;;;;10.38;5.93;;;;;;;;;;5033585;28;20036;-68
2022/06/06 09:59:10;;;;;;;10.90;5.78;;;;;;;;;;5011064;28;20084;-59
2022/06/06 10:01:55;;;;;;;6.88;5.68;;;;;;;;;;5009079;28;20034;-62
2022/06/06 10:04:23;;;;;;;8.60;4.97;;;;;;;;;;5010766;28;20037;-61
2022/06/06 10:07:08;;;;;;;9.10;4.80;;;;;;;;;;5011053;28;20049;-62
2022/06/06 10:09:48;;;;;;;7.45;4.07;;;;;;;;;;5010915;28;20053;-63
2022/06/06 10:12:20;;;;;;;8.65;3.80;;;;;;;;;;5004842;28;20038;-61
2022/06/06 10:14:46;;;;;;;;;;;;;;;;;;5010256;28;20113;-60
2022/06/06 10:17:12;;;;;;;6.10;3.80;;;;;;;;;;5009484;28;20349;-61
2022/06/06 10:20:07;;;;;;;4.47;3.10;;;;;;;;;;5009219;28;20057;-60
2022/06/06 10:22:43;;;;;;;4.15;3.28;;;;;;;;;;4942437;29;20048;-61
2022/06/06 10:25:28;;;;;;;5.63;3.63;;;;;;;;;;4933658;29;20489;-60
2022/06/06 10:27:54;;;;;;;4.45;3.67;;;;;;;;;;4939424;29;20035;-60
2022/06/06 10:30:24;;;;;;;5.13;3.78;;;;;;;;;;4942368;29;20066;-60
2022/06/06 10:33:08;;;;;;;4.95;3.22;;;;;;;;;;4947230;28;20066;-61
2022/06/06 10:35:34;;;;;;;4.25;3.30;;;;;;;;;;4970339;28;20035;-65
2022/06/06 10:38:00;;;;;;;6.18;2.83;;;;;;;;;;4970059;28;20033;-61
2022/06/06 10:40:29;;;;;;;9.63;2.83;;;;;;;;;;4970827;28;20557;-60
2022/06/06 10:43:01;;;;;;;5.57;3.00;;;;;;;;;;4971811;28;20053;-59
2022/06/06 10:45:27;;;;;;;;;;;;;;;;;;4971931;28;20458;-60
2022/06/06 10:48:02;;;;;;;4.88;2.70;;;;;;;;;;4971434;28;19910;-61
2022/06/06 10:50:33;;;;;;;4.20;2.72;;;;;;;;;;4971513;28;20035;-61
2022/06/06 10:53:08;;;;;;;7.05;3.13;;;;;;;;;;4971265;28;20687;-66
2022/06/06 10:56:01;;;;;;;6.90;3.08;;;;;;;;;;4970884;28;20038;-60
2022/06/06 10:58:30;;;;;;;6.88;3.13;;;;;;;;;;4983091;28;20038;-62
2022/06/06 11:01:11;;;;;;;9.73;3.22;;;;;;;;;;5012757;28;20041;-64
2022/06/06 11:03:52;;;;;;;5.15;2.70;;;;;;;;;;5012441;28;20378;-61
2022/06/06 11:06:37;;;;;;;4.13;2.70;;;;;;;;;;5012403;28;20034;-61
2022/06/06 11:09:23;;;;;;;7.97;2.90;;;;;;;;;;5012101;28;20065;-60
2022/06/06 11:12:01;;;;;;;8.10;2.63;;;;;;;;;;5020192;28;20548;-61
2022/06/06 11:14:41;;;;;;;7.43;2.80;;;;;;;;;;5030918;28;20557;-61
2022/06/06 11:17:07;;;;;;;5.30;2.47;;;;;;;;;;5031194;28;20064;-61
2022/06/06 11:19:52;;;;;;;4.78;2.80;;;;;;;;;;5030384;28;20033;-61
2022/06/06 11:22:29;;;;;;;9.40;2.50;;;;;;;;;;5028156;28;20405;-61
2022/06/06 11:24:58;;;;;;;3.90;2.38;;;;;;;;;;5030547;28;20068;-61
2022/06/06 11:27:39;;;;;;;5.90;2.92;;;;;;;;;;5030952;28;20033;-61
2022/06/06 11:30:05;;;;;;;6.20;2.60;;;;;;;;;;5026434;28;20022;-65
2022/06/06 11:32:50;;;;;;;6.13;2.40;;;;;;;;;;5029886;28;20070;-61
2022/06/06 11:35:25;;;;;;;5.32;2.00;;;;;;;;;;5030648;28;20056;-63
2022/06/06 11:37:59;;;;;;;2.90;2.03;;;;;;;;;;5030899;28;20076;-61
2022/06/06 11:40:37;;;;;;;5.20;2.22;;;;;;;;;;5029978;28;20413;-61
2022/06/06 11:43:19;;;;;;;3.30;1.35;;;;;;;;;;5028744;28;20036;-62
2022/06/06 11:46:03;;;;;;;2.80;1.42;;;;;;;;;;5030075;28;20055;-64
2022/06/06 11:48:29;;;;;;;4.25;1.58;;;;;;;;;;5029887;28;20478;-60
2022/06/06 11:50:55;;;;;;;4.20;1.52;;;;;;;;;;5030750;28;20033;-59
2022/06/06 11:53:41;;;;;;;2.75;1.75;;;;;;;;;;5030918;28;20033;-62
2022/06/06 11:56:26;;;;;;;6.15;1.67;;;;;;;;;;5031772;28;20434;-61
2022/06/06 11:58:52;;;;;;;5.30;2.05;;;;;;;;;;5030921;28;20037;-60
2022/06/06 12:01:42;;;;;;;4.03;1.90;;;;;;;;;;5030444;28;20446;-60
2022/06/06 12:04:23;;;;;;;2.47;1.88;;;;;;;;;;5030931;28;20041;-61
2022/06/06 12:07:02;;;;;;;2.90;1.85;;;;;;;;;;5029717;28;20030;-60
2022/06/06 12:09:31;;;;;;;3.25;1.90;;;;;;;;;;5027428;28;20467;-61
2022/06/06 12:12:17;;;;;;;3.30;1.80;;;;;;;;;;5030562;28;20026;-63
2022/06/06 12:14:43;;;;;;;4.95;1.88;;;;;;;;;;5030702;28;20021;-61
2022/06/06 12:17:33;;;;;;;4.22;1.80;;;;;;;;;;5030039;28;20029;-64
2022/06/06 12:20:21;;;;;;;2.53;1.30;;;;;;;;;;5025741;28;20040;-63
2022/06/06 12:23:06;;;;;;;2.53;1.50;;;;;;;;;;5030368;28;20456;-61
2022/06/06 12:25:53;;;;;;;4.20;1.83;;;;;;;;;;5027897;28;20030;-61
2022/06/06 12:28:26;;;;;;;6.20;1.50;;;;;;;;;;5030367;28;20033;-62
2022/06/06 12:31:10;;;;;;;3.67;1.40;;;;;;;;;;5030609;28;20014;-61
2022/06/06 12:33:43;;;;;;;3.20;1.23;;;;;;;;;;5027629;28;20079;-61
2022/06/06 12:36:14;;;;;;;1.95;1.40;;;;;;;;;;5030515;28;20112;-60
2022/06/06 12:38:47;;;;;;;2.75;1.60;;;;;;;;;;5028184;28;20057;-64
2022/06/06 12:41:13;;;;;;;4.78;1.70;;;;;;;;;;5030536;28;20056;-63
2022/06/06 12:43:59;;;;;;;4.43;1.60;;;;;;;;;;5030807;28;20381;-61
2022/06/06 12:46:34;;;;;;;2.13;1.30;;;;;;;;;;5026945;28;20045;-61
2022/06/06 12:49:05;;;;;;;5.05;1.65;;;;;;;;;;5023418;28;20071;-60
2022/06/06 12:51:32;;;;;;;5.67;1.90;;;;;;;;;;5029947;28;20034;-64
2022/06/06 12:54:17;;;;;;;2.00;1.42;;;;;;;;;;5029174;28;20017;-64
2022/06/06 12:57:00;;;;;;;5.60;1.73;;;;;;;;;;5028045;28;20075;-59
2022/06/06 12:59:26;;;;;;;2.35;1.50;;;;;;;;;;5029949;28;20038;-61
2022/06/06 13:02:01;;;;;;;4.20;1.80;;;;;;;;;;5032980;28;20024;-61
2022/06/06 13:05:03;;;;;;;2.22;1.60;;;;;;;;;;5033393;28;20033;-59
2022/06/06 13:07:29;;;;;;;;;;;;;;;;;;5011758;28;20044;-62
2022/06/06 13:09:58;;;;;;;3.63;2.08;;;;;;;;;;5010879;28;20004;-61
2022/06/06 13:12:40;;;;;;;3.83;1.67;;;;;;;;;;5010472;28;20084;-60
2022/06/06 13:15:15;;;;;;;2.70;1.42;;;;;;;;;;5009063;28;20033;-63
2022/06/06 13:17:55;;;;;;;4.05;1.77;;;;;;;;;;5008209;28;20038;-64
2022/06/06 13:20:32;;;;;;;7.80;2.22;;;;;;;;;;5010751;28;20529;-64
2022/06/06 13:23:04;;;;;;;2.95;1.90;;;;;;;;;;5010578;28;20040;-59
2022/06/06 13:25:30;;;;;;;;;;;;;;;;;;5009434;28;20029;-60
2022/06/06 13:27:58;;;;;;;3.90;1.52;;;;;;;;;;5010508;28;19909;-65
2022/06/06 13:30:51;;;;;;;2.90;1.60;;;;;;;;;;5011102;28;20026;-59
2022/06/06 13:33:36;;;;;;;2.53;1.60;;;;;;;;;;5011177;28;20053;-69
2022/06/06 13:36:11;;;;;;;4.88;1.58;;;;;;;;;;5010920;28;20449;-60
2022/06/06 13:38:51;;;;;;;4.22;1.50;;;;;;;;;;5010711;28;20105;-60
2022/06/06 13:41:54;;;;;;;2.95;1.65;;;;;;;;;;5018203;28;20428;-60
2022/06/06 13:44:20;;;;;;;;;;;;;;;;;;5011176;28;20080;-60
2022/06/06 13:46:54;;;;;;;2.92;1.70;;;;;;;;;;5010157;28;19909;-61
2022/06/06 13:49:20;;;;;;;2.00;1.50;;;;;;;;;;5010913;28;20044;-61
2022/06/06 13:51:59;;;;;;;2.22;1.55;;;;;;;;;;5011019;28;20030;-63
2022/06/06 13:54:29;;;;;;;3.67;1.60;;;;;;;;;;5011122;28;20101;-58
2022/06/06 13:57:00;;;;;;;3.08;1.67;;;;;;;;;;5011353;28;20540;-60
2022/06/06 13:59:26;;;;;;;3.83;1.48;;;;;;;;;;5008469;28;20049;-60
2022/06/06 14:01:55;;;;;;;3.63;1.65;;;;;;;;;;5011380;28;20030;-60
2022/06/06 14:04:41;;;;;;;9.38;1.77;;;;;;;;;;5011440;28;20545;-66
2022/06/06 14:07:14;;;;;;;1.90;1.60;;;;;;;;;;5011735;28;20022;-61
2022/06/06 14:09:44;;;;;;;2.95;1.77;;;;;;;;;;5011332;28;20080;-60
2022/06/06 14:12:25;;;;;;;1.98;1.67;;;;;;;;;;5011030;28;20038;-60
2022/06/06 14:14:57;;;;;;;2.20;1.42;;;;;;;;;;5011451;28;20040;-60
2022/06/06 14:17:27;;;;;;;3.22;1.60;;;;;;;;;;5011555;28;20470;-65
2022/06/06 14:20:07;;;;;;;3.63;1.63;;;;;;;;;;5013508;28;20034;-61
2022/06/06 14:22:36;;;;;;;6.57;1.80;;;;;;;;;;5013533;28;20022;-60
2022/06/06 14:25:03;;;;;;;2.85;1.70;;;;;;;;;;5013562;28;20044;-59
2022/06/06 14:27:30;;;;;;;5.32;2.08;;;;;;;;;;5013127;28;20061;-59
2022/06/06 14:30:00;;;;;;;5.63;1.88;;;;;;;;;;5013382;28;20033;-61
2022/06/06 14:32:30;;;;;;;2.25;1.60;;;;;;;;;;5013091;28;20047;-61
2022/06/06 14:34:57;;;;;;;4.10;1.70;;;;;;;;;;5019156;28;20056;-61
2022/06/06 14:37:31;;;;;;;5.28;1.70;;;;;;;;;;5032871;28;20053;-60
2022/06/06 14:39:59;;;;;;;3.75;2.00;;;;;;;;;;5032550;28;20200;-65
2022/06/06 14:42:35;;;;;;;5.00;2.38;;;;;;;;;;5033017;28;20453;-62
2022/06/06 14:45:06;;;;;;;5.35;1.90;;;;;;;;;;5033045;28;20026;-65
2022/06/06 14:47:34;;;;;;;4.43;2.13;;;;;;;;;;5032806;28;20083;-67
2022/06/06 14:52:57;;;;;;;4.20;2.00;;;;;;;;;;5032891;28;20044;-61
2022/06/06 14:55:23;;;;;;;11.05;5.28;;;;;;;;;;5032411;28;20461;-61
2022/06/06 14:57:51;;;;;;;3.78;2.25;;;;;;;;;;5031834;28;20044;-61
2022/06/06 15:00:38;;;;;;;4.72;2.85;;;;;;;;;;5032340;28;20041;-61
2022/06/06 15:03:08;;;;;;;4.45;2.20;;;;;;;;;;5032119;28;20050;-62
2022/06/06 15:05:34;;;;;;;5.32;2.15;;;;;;;;;;5032175;28;20116;-60
2022/06/06 15:08:08;;;;;;;7.15;3.28;;;;;;;;;;5031868;28;20029;-59
2022/06/06 15:10:34;;;;;;;9.25;5.07;;;;;;;;;;5031605;28;20037;-63
2022/06/06 15:13:01;;;;;;;3.30;2.00;;;;;;;;;;5031615;28;20075;-59
2022/06/06 15:15:29;;;;;;;6.95;4.00;;;;;;;;;;5030862;28;20128;-63
2022/06/06 15:17:55;;;;;;;4.97;1.95;;;;;;;;;;5031448;28;20026;-61
2022/06/06 15:20:21;;;;;;;2.97;1.63;;;;;;;;;;5032084;28;20037;-58
2022/06/06 15:22:48;;;;;;;5.90;3.55;;;;;;;;;;5031273;28;20109;-59
2022/06/06 15:25:18;;;;;;;9.32;3.20;;;;;;;;;;5031518;28;20053;-59
2022/06/06 15:27:53;;;;;;;10.60;3.88;;;;;;;;;;5031961;28;20785;-61
2022/06/06 15:30:21;;;;;;;10.60;4.90;;;;;;;;;;5031821;28;20036;-61
2022/06/06 15:32:47;;;;;;;7.85;4.55;;;;;;;;;;5032159;28;20029;-61
2022/06/06 15:35:26;;;;;;;11.10;6.03;;;;;;;;;;5032035;28;20033;-64
2022/06/06 15:38:01;;;;;;;12.35;6.18;;;;;;;;;;5031979;28;20030;-64
2022/06/06 15:40:36;;;;;;;8.07;4.45;;;;;;;;;;5031397;28;20072;-67
2022/06/06 15:43:02;;;;;;;14.63;5.90;;;;;;;;;;5031305;28;20033;-64
2022/06/06 15:45:34;;;;;;;12.43;5.70;;;;;;;;;;5031833;28;20047;-61
2022/06/06 15:48:00;;;;;;;6.53;5.40;;;;;;;;;;5031641;28;20099;-61
2022/06/06 15:50:44;;;;;;;10.02;6.15;;;;;;;;;;5030778;28;20029;-64
2022/06/06 15:53:13;;;;;;;12.77;6.25;;;;;;;;;;5031470;28;20385;-60
2022/06/06 15:55:55;;;;;;;10.27;5.30;;;;;;;;;;5031482;28;20378;-59
2022/06/06 15:58:31;;;;;;;9.88;5.50;;;;;;;;;;5031593;28;20091;-60
2022/06/06 16:01:07;;;;;;;9.15;5.38;;;;;;;;;;5031516;28;20041;-65
2022/06/06 16:03:52;;;;;;;10.13;5.05;;;;;;;;;;5031369;28;20037;-63
2022/06/06 16:06:19;;;;;;;12.75;5.00;;;;;;;;;;5029273;28;20028;-60
2022/06/06 16:08:52;;;;;;;8.77;5.78;;;;;;;;;;5030728;28;20037;-65
2022/06/06 16:11:34;;;;;;;7.47;5.10;;;;;;;;;;5030233;28;20018;-60
2022/06/06 16:14:00;;;;;;;;;;;;;;;;;;5032802;28;20021;-63
2022/06/06 16:16:31;;;;;;;8.43;5.57;;;;;;;;;;5032059;28;19905;-62
2022/06/06 16:19:02;;;;;;;11.77;6.45;;;;;;;;;;5033585;28;20041;-62
2022/06/06 16:21:38;;;;;;;9.05;6.28;;;;;;;;;;5038223;28;20036;-60
2022/06/06 16:24:13;;;;;;;9.05;5.50;;;;;;;;;;5038295;28;20034;-61
2022/06/06 16:26:48;;;;;;;10.85;5.57;;;;;;;;;;5046657;28;20057;-64
2022/06/06 16:29:22;;;;;;;10.50;6.18;;;;;;;;;;5035757;28;20013;-67
2022/06/06 16:31:50;;;;;;;8.48;5.70;;;;;;;;;;5040551;28;20417;-63
2022/06/06 16:34:19;;;;;;;7.30;4.95;;;;;;;;;;5044860;28;20025;-62
2022/06/06 16:36:56;;;;;;;13.25;6.72;;;;;;;;;;5032184;28;20059;-59
2022/06/06 16:39:32;;;;;;;7.63;4.70;;;;;;;;;;5029852;28;20060;-59
2022/06/06 16:50:38;;;;;;;6.50;4.43;;;;;;;;;;5029264;28;20543;-64
2022/06/06 16:53:16;;;;;;;8.82;4.55;;;;;;;;;;5030215;28;20076;-61
2022/06/06 16:55:48;;;;;;;8.45;4.55;;;;;;;;;;5030323;28;20033;-60
2022/06/06 16:58:21;;;;;;;10.02;5.80;;;;;;;;;;5030479;28;20104;-61
2022/06/06 17:00:58;;;;;;;11.38;5.55;;;;;;;;;;5029580;28;20664;-59
2022/06/06 17:03:27;;;;;;;8.30;4.90;;;;;;;;;;5027428;28;20029;-66
2022/06/06 17:09:19;;;;;;;8.00;4.50;;;;;;;;;;5038132;28;20044;-62
2022/06/06 17:11:51;;;;;;;7.13;4.47;;;;;;;;;;5035543;28;20507;-61
2022/06/06 17:14:17;;;;;;;;;;;;;;;;;;5038593;28;20045;-59
2022/06/06 17:17:01;;;;;;;5.22;3.80;;;;;;;;;;5036334;28;20381;-58
2022/06/06 17:19:27;;;;;;;8.00;3.83;;;;;;;;;;5036985;28;20444;-63
2022/06/06 17:21:59;;;;;;;10.50;4.38;;;;;;;;;;5035964;28;20037;-59
2022/06/06 17:24:25;;;;;;;;;;;;;;;;;;5046242;28;20029;-64
2022/06/06 17:26:56;;;;;;;11.02;4.55;;;;;;;;;;5037196;28;19905;-58
2022/06/06 17:29:40;;;;;;;12.10;5.43;;;;;;;;;;5042159;28;20021;-58
2022/06/06 17:32:17;;;;;;;9.20;5.00;;;;;;;;;;5033290;28;20039;-61
2022/06/06 17:34:44;;;;;;;9.23;4.93;;;;;;;;;;5038517;28;20039;-62
2022/06/06 17:37:19;;;;;;;9.73;4.68;;;;;;;;;;5047107;28;20399;-60
2022/06/06 17:39:50;;;;;;;8.18;4.78;;;;;;;;;;5027969;28;20165;-59
2022/06/06 17:42:19;;;;;;;9.25;4.03;;;;;;;;;;5010818;28;20028;-60
2022/06/06 17:44:51;;;;;;;6.03;4.40;;;;;;;;;;5010515;28;20117;-61
2022/06/06 17:47:17;;;;;;;;;;;;;;;;;;5025810;28;20032;-59
2022/06/06 17:50:02;;;;;;;5.03;3.55;;;;;;;;;;5033552;28;19905;-60
2022/06/06 17:52:33;;;;;;;8.50;4.40;;;;;;;;;;5033982;28;20029;-62
2022/06/06 17:55:02;;;;;;;8.50;4.50;;;;;;;;;;5033918;28;20029;-59
2022/06/06 17:57:34;;;;;;;9.50;6.97;;;;;;;;;;5033654;28;20282;-60
2022/06/06 18:00:09;;;;;;;7.18;4.85;;;;;;;;;;5032399;28;20042;-61
2022/06/06 18:02:44;;;;;;;10.10;4.65;;;;;;;;;;5033524;28;20032;-62
2022/06/06 18:05:20;;;;;;;7.03;4.95;;;;;;;;;;5033354;28;20423;-64
2022/06/06 18:07:46;;;;;;;8.75;4.47;;;;;;;;;;5032433;28;20476;-60
2022/06/06 18:10:23;;;;;;;12.00;5.25;;;;;;;;;;5032821;28;20048;-60
2022/06/06 18:12:52;;;;;;;16.52;10.27;;;;;;;;;;5032637;28;20472;-61
2022/06/06 18:15:37;;;;;;;24.23;15.38;;;;;;;;;;5033298;28;20044;-60
2022/06/06 18:18:21;;;;;;;13.88;8.77;;;;;;;;;;5033406;28;20479;-59
2022/06/06 18:20:47;;;;;;;8.10;5.22;;;;;;;;;;5032902;28;20083;-65
2022/06/06 18:23:16;;;;;;;9.60;4.53;;;;;;;;;;5032869;28;20017;-61
2022/06/06 18:25:48;;;;;;;7.95;4.10;;;;;;;;;;5033485;28;20022;-61
2022/06/06 18:28:18;;;;;;;9.55;4.65;;;;;;;;;;5032099;28;20346;-63
2022/06/06 18:30:49;;;;;;;7.13;3.67;;;;;;;;;;5032193;28;20052;-63
2022/06/06 18:33:21;;;;;;;9.45;4.60;;;;;;;;;;5031466;28;20488;-63
2022/06/06 18:35:48;;;;;;;7.32;4.05;;;;;;;;;;5031780;28;20026;-62
2022/06/06 18:38:16;;;;;;;6.47;3.92;;;;;;;;;;5031357;28;20025;-62
2022/06/06 18:40:44;;;;;;;8.85;4.25;;;;;;;;;;5031289;28;20053;-62
2022/06/06 18:43:29;;;;;;;6.63;4.18;;;;;;;;;;5031656;28;20025;-62
2022/06/06 18:46:31;;;;;;;7.35;5.00;;;;;;;;;;5031050;28;20036;-63
2022/06/06 18:49:06;;;;;;;13.60;9.00;;;;;;;;;;5009079;28;20545;-63
2022/06/06 18:51:39;;;;;;;21.77;9.40;;;;;;;;;;5009421;28;20042;-63
2022/06/06 18:54:09;;;;;;;14.93;7.00;;;;;;;;;;5009174;28;20018;-61
2022/06/06 18:56:53;;;;;;;13.13;5.75;;;;;;;;;;5009326;28;20099;-64
2022/06/06 18:59:22;;;;;;;11.77;6.25;;;;;;;;;;5007844;28;20052;-63
2022/06/06 19:01:50;;;;;;;11.85;5.80;;;;;;;;;;5009210;28;20465;-63
2022/06/06 19:04:19;;;;;;;13.40;6.15;;;;;;;;;;5009155;28;20118;-63
2022/06/06 19:07:17;;;;;;;16.60;9.35;;;;;;;;;;5010127;28;20037;-63
2022/06/06 19:09:46;;;;;;;13.90;7.85;;;;;;;;;;4932256;29;20500;-63
2022/06/06 19:12:15;;;;;;;13.38;6.90;;;;;;;;;;4932109;29;20035;-63
2022/06/06 19:14:48;;;;;;;11.50;5.55;;;;;;;;;;4922827;29;20074;-62
2022/06/06 19:17:15;;;;;;;16.35;8.80;;;;;;;;;;4920007;29;20067;-64
2022/06/06 19:19:41;;;;;;;16.00;9.52;;;;;;;;;;4920803;29;20047;-63
2022/06/06 19:22:17;;;;;;;13.88;9.40;;;;;;;;;;4922736;29;20099;-64
2022/06/06 19:24:50;;;;;;;10.00;6.50;;;;;;;;;;4939588;29;20515;-64
2022/06/06 19:27:36;;;;;;;12.93;6.28;;;;;;;;;;4950745;29;20498;-63
2022/06/06 19:30:04;;;;;;;11.95;6.50;;;;;;;;;;4948652;29;20475;-61
2022/06/06 19:32:32;;;;;;;11.90;6.50;;;;;;;;;;4950100;29;20038;-62
2022/06/06 19:35:08;;;;;;;11.00;5.43;;;;;;;;;;4950302;29;20086;-64
2022/06/06 19:37:41;;;;;;;10.55;6.30;;;;;;;;;;4949535;29;20031;-64
2022/06/06 19:40:07;;;;;;;9.45;5.60;;;;;;;;;;4950629;28;20470;-64
2022/06/06 19:42:52;;;;;;;11.32;6.55;;;;;;;;;;4950764;29;20027;-64
2022/06/06 19:45:18;;;;;;;13.52;6.25;;;;;;;;;;4988010;28;20033;-63
2022/06/06 19:47:50;;;;;;;10.90;5.35;;;;;;;;;;5030278;28;20029;-62
2022/06/06 19:50:39;;;;;;;10.77;5.28;;;;;;;;;;5028338;28;20532;-64
2022/06/06 19:53:07;;;;;;;13.27;7.53;;;;;;;;;;5024105;28;20729;-64
2022/06/06 19:55:38;;;;;;;13.63;7.30;;;;;;;;;;5030604;28;20029;-64
2022/06/06 19:58:05;;;;;;;11.95;6.35;;;;;;;;;;5030299;28;20048;-63
2022/06/06 20:00:33;;;;;;;14.52;8.50;;;;;;;;;;5029868;28;20115;-63
2022/06/06 20:03:00;;;;;;;12.70;7.50;;;;;;;;;;5030301;28;20098;-63
2022/06/06 20:05:29;;;;;;;11.98;6.68;;;;;;;;;;5027567;28;20385;-63
2022/06/06 20:08:18;;;;;;;13.20;7.82;;;;;;;;;;5030241;28;20021;-63
2022/06/06 20:10:44;;;;;;;13.45;6.90;;;;;;;;;;5029311;28;20112;-64
2022/06/06 20:13:25;;;;;;;10.70;6.07;;;;;;;;;;5030319;28;20094;-63
2022/06/06 20:15:52;;;;;;;12.45;7.47;;;;;;;;;;5026394;28;20025;-64
2022/06/06 20:18:22;;;;;;;11.70;5.53;;;;;;;;;;5031434;28;20030;-64
2022/06/06 20:20:49;;;;;;;11.95;7.25;;;;;;;;;;5031704;28;20056;-63
2022/06/06 20:23:31;;;;;;;10.38;5.90;;;;;;;;;;5031254;28;20022;-63
2022/06/06 20:25:58;;;;;;;15.88;7.40;;;;;;;;;;5031455;28;20037;-63
2022/06/06 20:28:32;;;;;;;9.27;5.75;;;;;;;;;;5031332;28;20036;-63
2022/06/06 20:33:57;;;;;;;10.02;6.03;;;;;;;;;;5029232;28;20040;-63